createdAt,value
2019-05-02T00:01:46.166Z,70.79
2019-05-02T00:04:21.018Z,70.81
2019-05-02T00:07:05.644Z,70.28
2019-05-02T00:09:47.388Z,70.22
2019-05-02T00:12:25.788Z,70.04
2019-05-02T00:15:01.963Z,70.00
2019-05-02T00:17:36.417Z,69.79
2019-05-02T00:20:10.749Z,69.87
2019-05-02T00:22:48.033Z,70.29
2019-05-02T00:25:34.165Z,70.30
2019-05-02T00:28:12.497Z,70.27
2019-05-02T00:30:52.295Z,70.42
2019-05-02T00:33:29.237Z,70.38
2019-05-02T00:36:10.326Z,70.74
2019-05-02T00:38:43.880Z,71.10
2019-05-02T00:41:17.182Z,71.96
2019-05-02T00:43:51.164Z,72.24
2019-05-02T00:46:25.089Z,72.22
2019-05-02T00:49:07.907Z,72.20
2019-05-02T00:51:50.368Z,72.35
2019-05-02T00:54:25.249Z,72.43
2019-05-02T00:56:59.352Z,72.49
2019-05-02T00:59:32.847Z,72.65
2019-05-02T01:02:13.458Z,72.55
2019-05-02T01:04:48.719Z,72.64
2019-05-02T01:07:25.482Z,72.53
2019-05-02T01:10:06.377Z,72.86
2019-05-02T01:12:48.936Z,72.95
2019-05-02T01:15:22.246Z,73.28
2019-05-02T01:17:55.726Z,73.59
2019-05-02T01:20:29.341Z,73.61
2019-05-02T01:23:02.557Z,73.88
2019-05-02T01:25:37.409Z,74.05
2019-05-02T01:28:38.787Z,74.40
2019-05-02T01:31:22.817Z,74.65
2019-05-02T01:34:32.614Z,74.87
2019-05-02T01:37:11.852Z,74.91
2019-05-02T01:39:46.331Z,75.33
2019-05-02T01:42:39.649Z,75.75
2019-05-02T01:45:06.772Z,76.14
2019-05-02T01:47:40.160Z,76.37
2019-05-02T01:50:13.945Z,76.81
2019-05-02T01:52:47.471Z,76.89
2019-05-02T01:55:22.331Z,77.00
2019-05-02T01:57:55.532Z,77.27
2019-05-02T02:00:29.704Z,77.55
2019-05-02T02:03:12.054Z,77.70
2019-05-02T02:05:45.694Z,77.79
2019-05-02T02:08:18.854Z,78.07
2019-05-02T02:10:56.211Z,78.17
2019-05-02T02:13:31.306Z,78.10
2019-05-02T02:16:04.410Z,78.45
2019-05-02T02:18:59.118Z,78.61
2019-05-02T02:21:42.744Z,78.79
2019-05-02T02:24:34.322Z,78.93
2019-05-02T02:27:07.639Z,79.17
2019-05-02T02:29:44.056Z,79.13
2019-05-02T02:32:20.129Z,79.31
2019-05-02T02:34:52.099Z,79.52
2019-05-02T02:37:25.245Z,79.69
2019-05-02T02:39:58.433Z,79.91
2019-05-02T02:42:43.327Z,79.91
2019-05-02T02:45:37.768Z,79.92
2019-05-02T02:48:11.231Z,80.02
2019-05-02T02:50:45.405Z,80.31
2019-05-02T02:53:33.522Z,80.45
2019-05-02T02:56:09.476Z,80.44
2019-05-02T02:58:51.604Z,80.28
2019-05-02T03:01:28.558Z,80.31
2019-05-02T03:04:01.777Z,79.98
2019-05-02T03:06:38.441Z,80.06
2019-05-02T03:09:10.482Z,80.11
2019-05-02T03:12:04.555Z,80.06
2019-05-02T03:14:47.250Z,79.98
2019-05-02T03:17:29.215Z,79.92
2019-05-02T03:20:03.824Z,79.94
2019-05-02T03:22:41.790Z,80.07
2019-05-02T03:25:18.418Z,80.07
2019-05-02T03:27:48.055Z,80.02
2019-05-02T03:30:32.573Z,79.78
2019-05-02T03:33:06.524Z,79.73
2019-05-02T03:35:48.423Z,79.69
2019-05-02T03:38:32.632Z,79.69
2019-05-02T03:41:20.929Z,79.63
2019-05-02T03:44:10.708Z,79.56
2019-05-02T03:46:45.336Z,79.52
2019-05-02T03:49:17.081Z,79.34
2019-05-02T03:51:55.837Z,79.13
2019-05-02T03:54:26.437Z,78.92
2019-05-02T03:57:02.171Z,78.91
2019-05-02T03:59:46.949Z,79.15
2019-05-02T04:02:21.808Z,79.40
2019-05-02T04:05:07.245Z,79.54
2019-05-02T04:07:49.594Z,80.02
2019-05-02T04:10:52.790Z,80.02
2019-05-02T04:13:30.172Z,80.08
2019-05-02T04:16:14.296Z,80.06
2019-05-02T04:18:54.649Z,80.59
2019-05-02T04:21:25.952Z,80.66
2019-05-02T04:24:10.762Z,80.70
2019-05-02T04:26:34.156Z,80.75
2019-05-02T04:29:08.747Z,80.71
2019-05-02T04:31:42.562Z,80.75
2019-05-02T04:34:18.838Z,80.95
2019-05-02T04:37:04.009Z,81.16
2019-05-02T04:39:48.855Z,81.11
2019-05-02T04:42:39.232Z,81.11
2019-05-02T04:45:29.096Z,81.00
2019-05-02T04:48:03.056Z,80.82
2019-05-02T04:50:40.402Z,80.89
2019-05-02T04:53:13.577Z,80.98
2019-05-02T04:55:52.089Z,80.90
2019-05-02T04:58:27.831Z,81.04
2019-05-02T05:01:01.560Z,81.43
2019-05-02T05:03:32.579Z,81.60
2019-05-02T05:06:12.230Z,81.84
2019-05-02T05:08:42.947Z,82.09
2019-05-02T05:11:20.742Z,82.11
2019-05-02T05:13:59.008Z,82.08
2019-05-02T05:16:40.085Z,82.29
2019-05-02T05:19:13.491Z,82.42
2019-05-02T05:21:47.653Z,82.63
2019-05-02T05:24:42.306Z,82.73
2019-05-02T05:27:18.846Z,82.73
2019-05-02T05:29:53.729Z,82.55
2019-05-02T05:32:25.089Z,82.45
2019-05-02T05:35:03.460Z,82.72
2019-05-02T05:37:38.081Z,83.04
2019-05-02T05:40:10.887Z,83.23
2019-05-02T05:42:44.791Z,83.29
2019-05-02T05:45:27.906Z,83.08
2019-05-02T05:48:10.294Z,82.84
2019-05-02T05:50:43.884Z,82.58
2019-05-02T05:53:21.370Z,82.51
2019-05-02T05:56:04.848Z,82.76
2019-05-02T05:58:52.565Z,82.95
2019-05-02T06:01:25.976Z,83.07
2019-05-02T06:04:00.626Z,83.17
2019-05-02T06:06:34.515Z,83.16
2019-05-02T06:09:09.569Z,83.04
2019-05-02T06:11:42.756Z,82.79
2019-05-02T06:14:26.191Z,83.09
2019-05-02T06:16:59.559Z,83.10
2019-05-02T06:19:33.161Z,83.09
2019-05-02T06:22:06.677Z,83.05
2019-05-02T06:24:40.500Z,82.86
2019-05-02T06:27:13.676Z,82.47
2019-05-02T06:29:57.310Z,82.43
2019-05-02T06:32:30.973Z,82.29
2019-05-02T06:35:04.495Z,81.78
2019-05-02T06:37:40.581Z,81.54
2019-05-02T06:40:13.208Z,81.16
2019-05-02T06:42:46.478Z,80.80
2019-05-02T06:45:20.399Z,80.79
2019-05-02T06:47:53.647Z,80.78
2019-05-02T06:50:26.807Z,80.91
2019-05-02T06:53:09.539Z,81.10
2019-05-02T06:55:43.845Z,81.22
2019-05-02T06:58:17.500Z,81.10
2019-05-02T07:01:02.208Z,81.39
2019-05-02T07:03:35.573Z,81.52
2019-05-02T07:06:09.215Z,81.48
2019-05-02T07:08:42.769Z,81.35
2019-05-02T07:11:26.629Z,81.15
2019-05-02T07:14:13.654Z,81.24
2019-05-02T07:16:54.555Z,81.43
2019-05-02T07:19:33.898Z,81.81
2019-05-02T07:22:07.485Z,82.23
2019-05-02T07:24:41.076Z,82.39
2019-05-02T07:27:14.241Z,82.63
2019-05-02T07:29:47.461Z,82.58
2019-05-02T07:32:29.631Z,82.40
2019-05-02T07:35:03.577Z,82.35
2019-05-02T07:37:48.787Z,82.68
2019-05-02T07:40:22.843Z,82.48
2019-05-02T07:42:56.369Z,82.26
2019-05-02T07:45:30.926Z,82.15
2019-05-02T07:48:04.697Z,82.09
2019-05-02T07:50:41.282Z,81.79
2019-05-02T07:53:15.165Z,81.41
2019-05-02T07:55:49.402Z,81.33
2019-05-02T07:58:32.800Z,81.37
2019-05-02T08:01:08.025Z,81.18
2019-05-02T08:03:42.404Z,81.32
2019-05-02T08:06:17.458Z,81.32
2019-05-02T08:09:09.374Z,81.27
2019-05-02T08:11:59.846Z,81.13
2019-05-02T08:14:49.832Z,81.00
2019-05-02T08:17:39.689Z,81.12
2019-05-02T08:20:13.546Z,81.25
2019-05-02T08:22:48.931Z,81.39
2019-05-02T08:25:23.121Z,81.26
2019-05-02T08:28:26.882Z,81.18
2019-05-02T08:31:19.036Z,81.30
2019-05-02T08:34:14.694Z,81.08
2019-05-02T08:37:03.340Z,80.78
2019-05-02T08:39:53.580Z,80.54
2019-05-02T08:42:32.194Z,80.79
2019-05-02T08:45:03.139Z,80.84
2019-05-02T08:47:37.144Z,80.44
2019-05-02T08:50:19.132Z,80.26
2019-05-02T08:52:52.306Z,80.18
2019-05-02T08:55:29.815Z,79.81
2019-05-02T08:58:14.498Z,79.82
2019-05-02T09:00:47.338Z,79.50
2019-05-02T09:03:21.236Z,79.61
2019-05-02T09:06:05.260Z,79.65
2019-05-02T09:08:31.640Z,79.91
2019-05-02T09:11:15.887Z,79.84
2019-05-02T09:13:52.470Z,79.31
2019-05-02T09:16:36.192Z,79.28
2019-05-02T09:19:13.524Z,79.25
2019-05-02T09:21:47.867Z,79.03
2019-05-02T09:24:23.935Z,79.21
2019-05-02T09:27:06.517Z,79.08
2019-05-02T09:29:51.898Z,79.17
2019-05-02T09:32:26.588Z,79.17
2019-05-02T09:35:08.899Z,79.25
2019-05-02T09:37:42.470Z,79.31
2019-05-02T09:40:17.184Z,79.59
2019-05-02T09:43:02.802Z,79.37
2019-05-02T09:45:37.570Z,79.23
2019-05-02T09:48:22.885Z,79.04
2019-05-02T09:50:57.910Z,79.08
2019-05-02T09:53:33.039Z,78.53
2019-05-02T09:56:15.198Z,78.29
2019-05-02T09:58:49.397Z,78.72
2019-05-02T10:01:38.962Z,78.50
2019-05-02T10:04:12.510Z,77.93
2019-05-02T10:06:46.013Z,76.41
2019-05-02T10:09:24.255Z,76.31
2019-05-02T10:11:54.938Z,75.13
2019-05-02T10:14:29.684Z,73.52
2019-05-02T10:17:07.157Z,73.26
2019-05-02T10:19:41.175Z,73.41
2019-05-02T10:22:14.747Z,73.07
2019-05-02T10:24:57.457Z,73.73
2019-05-02T10:27:32.278Z,73.75
2019-05-02T10:30:11.972Z,73.85
2019-05-02T10:32:42.730Z,73.85
2019-05-02T10:35:20.172Z,74.00
2019-05-02T10:37:53.665Z,73.98
2019-05-02T10:40:27.233Z,74.15
2019-05-02T10:43:02.746Z,73.88
2019-05-02T10:45:36.295Z,74.48
2019-05-02T10:48:28.598Z,74.56
2019-05-02T10:51:19.134Z,74.53
2019-05-02T10:53:56.260Z,74.63
2019-05-02T10:56:27.662Z,74.37
2019-05-02T10:59:02.243Z,74.32
2019-05-02T11:02:05.429Z,73.76
2019-05-02T11:04:42.776Z,73.82
2019-05-02T11:07:28.710Z,73.77
2019-05-02T11:10:05.394Z,73.70
2019-05-02T11:12:59.281Z,73.42
2019-05-02T11:15:52.373Z,73.23
2019-05-02T11:18:40.418Z,72.83
2019-05-02T11:21:04.414Z,73.11
2019-05-02T11:23:37.713Z,73.06
2019-05-02T11:26:14.524Z,73.26
2019-05-02T11:28:46.199Z,73.27
2019-05-02T11:31:28.055Z,73.00
2019-05-02T11:34:01.940Z,72.64
2019-05-02T11:36:36.015Z,72.58
2019-05-02T11:39:26.501Z,70.76
2019-05-02T11:41:53.042Z,70.01
2019-05-02T11:44:26.741Z,69.90
2019-05-02T11:47:02.016Z,70.07
2019-05-02T11:49:36.780Z,69.67
2019-05-02T11:52:11.828Z,69.69
2019-05-02T11:54:54.122Z,67.87
2019-05-02T11:57:30.255Z,67.90
2019-05-02T12:00:05.022Z,67.37
2019-05-02T12:02:58.380Z,67.35
2019-05-02T12:05:38.945Z,65.82
2019-05-02T12:08:19.861Z,65.49
2019-05-02T12:10:52.824Z,65.23
2019-05-02T12:13:34.720Z,65.46
2019-05-02T12:16:12.454Z,66.10
2019-05-02T12:19:09.602Z,66.49
2019-05-02T12:21:39.225Z,65.72
2019-05-02T12:24:12.761Z,65.82
2019-05-02T12:26:55.886Z,64.95
2019-05-02T12:29:30.510Z,65.76
2019-05-02T12:32:22.374Z,65.92
2019-05-02T12:34:55.653Z,65.30
2019-05-02T12:37:29.156Z,66.02
2019-05-02T12:40:02.769Z,66.20
2019-05-02T12:42:36.354Z,65.53
2019-05-02T12:45:12.193Z,64.96
2019-05-02T12:47:46.936Z,65.59
2019-05-02T12:50:22.483Z,66.50
2019-05-02T12:52:56.288Z,67.08
2019-05-02T12:55:29.812Z,66.86
2019-05-02T12:58:03.270Z,67.10
2019-05-02T13:00:36.887Z,67.05
2019-05-02T13:03:35.304Z,67.02
2019-05-02T13:06:08.734Z,66.65
2019-05-02T13:08:52.746Z,66.81
2019-05-02T13:11:37.031Z,66.76
2019-05-02T13:14:42.247Z,66.11
2019-05-02T13:17:29.324Z,66.36
2019-05-02T13:20:03.928Z,66.69
2019-05-02T13:22:54.339Z,67.47
2019-05-02T13:25:32.778Z,68.27
2019-05-02T13:28:03.344Z,68.10
2019-05-02T13:30:47.469Z,67.79
2019-05-02T13:33:57.049Z,67.60
2019-05-02T13:36:51.917Z,68.42
2019-05-02T13:39:55.013Z,67.81
2019-05-02T13:42:28.660Z,67.50
2019-05-02T13:45:08.033Z,67.91
2019-05-02T13:47:42.607Z,67.72
2019-05-02T13:50:17.346Z,68.16
2019-05-02T13:52:53.097Z,68.15
2019-05-02T13:55:31.745Z,67.63
2019-05-02T13:58:05.784Z,67.96
2019-05-02T14:00:45.274Z,68.50
2019-05-02T14:03:29.281Z,68.89
2019-05-02T14:06:03.091Z,69.56
2019-05-02T14:08:45.804Z,69.82
2019-05-02T14:11:37.110Z,71.45
2019-05-02T14:14:11.747Z,73.24
2019-05-02T14:16:53.705Z,73.87
2019-05-02T14:19:26.933Z,73.85
2019-05-02T14:22:00.462Z,75.79
2019-05-02T14:24:33.964Z,76.46
2019-05-02T14:27:17.264Z,76.32
2019-05-02T14:29:52.525Z,76.64
2019-05-02T14:32:26.876Z,74.91
2019-05-02T14:35:26.373Z,74.82
2019-05-02T14:38:13.136Z,74.31
2019-05-02T14:40:53.172Z,74.17
2019-05-02T14:43:53.148Z,73.96
2019-05-02T14:46:39.466Z,72.60
2019-05-02T14:49:12.066Z,72.23
2019-05-02T14:51:45.635Z,72.68
2019-05-02T14:54:19.973Z,71.44
2019-05-02T14:57:17.173Z,72.09
2019-05-02T14:59:50.296Z,72.49
2019-05-02T15:02:51.767Z,72.57
2019-05-02T15:05:34.171Z,73.37
2019-05-02T15:08:07.970Z,73.87
2019-05-02T15:10:56.400Z,74.49
2019-05-02T15:13:25.874Z,74.92
2019-05-02T15:15:59.583Z,74.97
2019-05-02T15:18:32.886Z,74.92
2019-05-02T15:21:12.364Z,74.65
2019-05-02T15:23:42.334Z,74.65
2019-05-02T15:26:26.269Z,73.93
2019-05-02T15:29:01.815Z,73.73
2019-05-02T15:31:50.025Z,73.43
2019-05-02T15:34:35.561Z,73.16
2019-05-02T15:37:29.245Z,70.02
2019-05-02T15:40:43.499Z,69.77
2019-05-02T15:42:56.845Z,69.36
2019-05-02T15:45:31.949Z,70.81
2019-05-02T15:48:05.553Z,70.82
2019-05-02T15:50:48.740Z,70.07
2019-05-02T15:53:39.149Z,70.87
2019-05-02T15:56:19.835Z,70.55
2019-05-02T15:58:49.450Z,71.72
2019-05-02T16:01:46.016Z,72.03
2019-05-02T16:04:24.088Z,72.03
2019-05-02T16:06:53.828Z,72.39
2019-05-02T16:09:27.434Z,75.43
2019-05-02T16:12:03.106Z,78.43
2019-05-02T16:14:37.774Z,80.79
2019-05-02T16:17:12.471Z,82.44
2019-05-02T16:19:53.176Z,83.71
2019-05-02T16:22:26.971Z,84.75
2019-05-02T16:25:01.642Z,84.65
2019-05-02T16:27:47.685Z,84.45
2019-05-02T16:30:32.129Z,84.60
2019-05-02T16:33:07.986Z,84.73
2019-05-02T16:35:42.064Z,85.15
2019-05-02T16:38:15.979Z,85.44
2019-05-02T16:40:49.523Z,85.17
2019-05-02T16:43:26.515Z,84.89
2019-05-02T16:46:01.745Z,84.85
2019-05-02T16:48:37.556Z,85.46
2019-05-02T16:51:29.444Z,85.23
2019-05-02T16:54:01.504Z,84.58
2019-05-02T16:56:31.729Z,84.43
2019-05-02T16:59:16.977Z,83.28
2019-05-02T17:01:52.646Z,83.39
2019-05-02T17:04:24.758Z,82.30
2019-05-02T17:07:02.098Z,80.80
2019-05-02T17:09:57.098Z,81.33
2019-05-02T17:12:31.830Z,81.71
2019-05-02T17:15:36.907Z,81.43
2019-05-02T17:18:19.434Z,79.67
2019-05-02T17:20:56.626Z,79.64
2019-05-02T17:23:27.831Z,78.71
2019-05-02T17:26:01.689Z,78.76
2019-05-02T17:28:37.999Z,79.00
2019-05-02T17:31:18.818Z,79.04
2019-05-02T17:33:46.200Z,79.67
2019-05-02T17:36:32.514Z,80.02
2019-05-02T17:39:14.586Z,80.32
2019-05-02T17:41:48.063Z,81.16
2019-05-02T17:44:24.481Z,81.21
2019-05-02T17:47:01.656Z,81.81
2019-05-02T17:49:43.967Z,81.67
2019-05-02T17:52:45.469Z,81.73
2019-05-02T17:55:19.168Z,81.39
2019-05-02T17:57:52.371Z,81.44
2019-05-02T18:00:26.841Z,80.80
2019-05-02T18:03:15.357Z,80.57
2019-05-02T18:05:47.551Z,80.15
2019-05-02T18:08:21.909Z,79.07
2019-05-02T18:11:06.402Z,79.50
2019-05-02T18:13:42.342Z,79.19
2019-05-02T18:16:16.790Z,79.67
2019-05-02T18:18:52.238Z,78.69
2019-05-02T18:21:35.537Z,78.77
2019-05-02T18:24:22.511Z,79.37
2019-05-02T18:26:56.716Z,79.29
2019-05-02T18:29:30.075Z,78.95
2019-05-02T18:32:17.428Z,79.33
2019-05-02T18:34:48.456Z,79.01
2019-05-02T18:37:24.934Z,78.87
2019-05-02T18:40:07.381Z,79.08
2019-05-02T18:42:42.892Z,79.56
2019-05-02T18:45:31.739Z,79.44
2019-05-02T18:48:13.822Z,78.97
2019-05-02T18:50:50.071Z,79.38
2019-05-02T18:53:26.978Z,78.76
2019-05-02T18:56:07.268Z,78.71
2019-05-02T18:58:44.538Z,78.69
2019-05-02T19:01:17.806Z,78.68
2019-05-02T19:03:55.965Z,78.65
2019-05-02T19:06:36.258Z,78.96
2019-05-02T19:09:25.020Z,79.35
2019-05-02T19:12:05.877Z,79.31
2019-05-02T19:14:39.128Z,78.37
2019-05-02T19:17:13.117Z,78.06
2019-05-02T19:19:46.579Z,78.12
2019-05-02T19:22:24.592Z,78.23
2019-05-02T19:25:17.658Z,78.12
2019-05-02T19:28:03.141Z,78.49
2019-05-02T19:30:38.387Z,78.44
2019-05-02T19:33:12.629Z,78.32
2019-05-02T19:35:54.551Z,77.64
2019-05-02T19:38:28.805Z,78.04
2019-05-02T19:41:11.801Z,78.28
2019-05-02T19:43:54.611Z,78.07
2019-05-02T19:46:38.967Z,78.11
2019-05-02T19:49:23.091Z,77.72
2019-05-02T19:51:58.308Z,78.65
2019-05-02T19:54:39.310Z,78.47
2019-05-02T19:57:17.251Z,77.89
2019-05-02T19:59:52.486Z,78.03
2019-05-02T20:02:25.753Z,78.12
2019-05-02T20:05:07.940Z,78.51
2019-05-02T20:07:42.669Z,79.00
2019-05-02T20:10:17.920Z,78.80
2019-05-02T20:12:52.744Z,78.46
2019-05-02T20:15:37.913Z,78.28
2019-05-02T20:18:12.464Z,78.57
2019-05-02T20:21:23.426Z,78.79
2019-05-02T20:23:47.248Z,78.86
2019-05-02T20:26:22.122Z,78.06
2019-05-02T20:28:56.649Z,77.72
2019-05-02T20:31:39.626Z,77.30
2019-05-02T20:34:22.409Z,77.24
2019-05-02T20:36:56.153Z,77.12
2019-05-02T20:39:38.843Z,76.95
2019-05-02T20:42:22.036Z,77.22
2019-05-02T20:45:04.688Z,76.74
2019-05-02T20:47:52.459Z,76.70
2019-05-02T20:50:25.742Z,76.49
2019-05-02T20:53:09.150Z,75.84
2019-05-02T20:55:42.752Z,76.17
2019-05-02T20:58:17.019Z,76.00
2019-05-02T21:01:08.571Z,75.98
2019-05-02T21:03:47.776Z,75.93
2019-05-02T21:06:40.953Z,76.36
2019-05-02T21:09:43.148Z,77.16
2019-05-02T21:12:18.182Z,76.75
2019-05-02T21:15:01.719Z,77.15
2019-05-02T21:17:36.610Z,77.38
2019-05-02T21:20:12.335Z,76.36
2019-05-02T21:22:45.603Z,76.23
2019-05-02T21:25:18.836Z,76.16
2019-05-02T21:27:53.491Z,75.52
2019-05-02T21:30:32.121Z,75.75
2019-05-02T21:33:05.623Z,75.40
2019-05-02T21:35:48.182Z,74.95
2019-05-02T21:38:22.595Z,75.53
2019-05-02T21:40:56.550Z,75.96
2019-05-02T21:43:31.666Z,75.74
2019-05-02T21:46:05.047Z,75.57
2019-05-02T21:48:42.015Z,75.65
2019-05-02T21:51:37.020Z,75.20
2019-05-02T21:54:33.397Z,75.00
2019-05-02T21:57:26.962Z,75.25
2019-05-02T22:00:12.751Z,75.66
2019-05-02T22:03:04.986Z,76.41
2019-05-02T22:05:42.270Z,76.19
2019-05-02T22:08:17.043Z,76.33
2019-05-02T22:11:06.760Z,76.97
2019-05-02T22:13:42.256Z,77.62
2019-05-02T22:16:17.966Z,77.29
2019-05-02T22:19:00.264Z,77.46
2019-05-02T22:21:35.114Z,76.80
2019-05-02T22:24:12.363Z,76.22
2019-05-02T22:26:48.873Z,76.39
2019-05-02T22:29:22.104Z,75.69
2019-05-02T22:32:04.264Z,75.88
2019-05-02T22:34:37.948Z,76.05
2019-05-02T22:37:13.317Z,75.73
2019-05-02T22:40:03.668Z,76.16
2019-05-02T22:42:35.386Z,75.63
2019-05-02T22:45:12.517Z,75.71
2019-05-02T22:47:46.454Z,75.64
2019-05-02T22:50:22.043Z,76.44
2019-05-02T22:53:04.376Z,76.70
2019-05-02T22:55:37.624Z,76.97
2019-05-02T22:58:11.517Z,77.17
2019-05-02T23:00:44.975Z,77.09
2019-05-02T23:03:18.128Z,77.09
2019-05-02T23:05:52.636Z,77.22
2019-05-02T23:08:36.920Z,77.26
2019-05-02T23:11:12.856Z,76.83
2019-05-02T23:13:54.791Z,76.68
2019-05-02T23:16:29.298Z,76.54
2019-05-02T23:19:02.816Z,76.79
2019-05-02T23:21:46.220Z,76.90
2019-05-02T23:24:54.083Z,77.35
2019-05-02T23:27:39.709Z,77.44
2019-05-02T23:30:19.978Z,77.57
2019-05-02T23:32:53.301Z,77.54
2019-05-02T23:35:26.763Z,77.63
2019-05-02T23:38:01.999Z,77.56
2019-05-02T23:40:35.376Z,77.66
2019-05-02T23:43:17.767Z,77.63
2019-05-02T23:45:52.625Z,77.24
2019-05-02T23:48:26.204Z,77.39
2019-05-02T23:51:02.647Z,77.11
2019-05-02T23:53:36.398Z,76.84
2019-05-02T23:56:09.545Z,76.51
2019-05-02T23:58:44.481Z,75.95
